• Join FlightAware (Why Join?)
  • Login
  • US Flag 
02:23AM EDT


 

Airport Tracker/Info


-or-


 

Live Flight TrackerFlight Track Log ✈ N867DS ✈ 15-Oct-2013 ✈ KAPF - F45

Flight Track Log - Related Links

Times and Time Zones

All times are in EDT time to prevent confusion due to time zone crossing. See the N867DS flight status page for this flight to view local times or setup timezone preferences in your user account.

Time Position Orientation Groundspeed Altitude Reporting Facility
EDT Latitude Longitude Course Direction KTS MPH feet Rate Location/Type
03:34PM 26.2996 -81.6078 46° Northeast  Level FlightAware Approximate
03:35PM 26.3139 -81.5721 47° Northeast  Level Estimated
03:36PM 26.3389 -81.5446 45° Northeast  Level FlightAware Approximate
03:37PM 26.3638 -81.5171 45° Northeast  Level FlightAware Approximate
03:38PM 26.3888 -81.4895 45° Northeast  Level FlightAware Approximate
03:39PM 26.4137 -81.4620 45° Northeast  Level FlightAware Approximate
03:40PM 26.4387 -81.4344 45° Northeast  Level FlightAware Approximate
03:41PM 26.4636 -81.4068 45° Northeast  Level FlightAware Approximate
03:42PM 26.4885 -81.3792 45° Northeast  Level FlightAware Approximate
03:43PM 26.5001 -81.3422 42° Northeast  Level Estimated
03:44PM 26.5117 -81.3052 77° East  Level Estimated
03:45PM 26.5306 -81.2722 57° Northeast  Level FlightAware Approximate
03:46PM 26.5495 -81.2392 57° Northeast  Level FlightAware Approximate
03:46PM 26.5544 -81.3411 57° Northeast 144 166 3,000  Level Miami Center
03:47PM 26.5786 -81.3072 51° Northeast 131 151 3,000  Level Miami Center
03:48PM 26.6025 -81.2756 50° Northeast 142 163 3,000  Level Miami Center
03:49PM 26.6062 -81.1400 57° Northeast  Level FlightAware Approximate
03:49PM 26.6244 -81.2439 52° Northeast 136 157 3,000  Level Miami Center
03:50PM 26.6251 -81.1069 57° Northeast  Level FlightAware Approximate
03:50PM 26.6483 -81.2097 52° Northeast 136 157 3,100  Level Miami Center
03:51PM 26.6683 -81.1733 58° Northeast 131 151 3,100  Level Miami Center
03:52PM 26.6900 -81.1394 54° Northeast 136 157 3,100 -60 Level Miami Center
03:53PM 26.7119 -81.1053 54° Northeast 136 157 3,000  Descending Miami Center
03:54PM 26.6989 -81.0514 105° East 136 157 3,100  Climbing Miami Center
03:55PM 26.7125 -81.0122 69° East 136 157 3,000 -60 Descending Miami Center
03:56PM 26.7242 -80.9686 73° East 136 157 3,000  Level Miami Center
03:57PM 26.7358 -80.9294 72° East 136 157 3,000 -60 Level Miami Center
03:58PM 26.7433 -80.8856 79° East 136 157 2,900  Descending Miami Center
04:00PM 26.7536 -80.8092 81° East 130 150 3,100 60 Climbing Miami Center
04:01PM 26.7614 -80.7628 79° East 130 150 3,100  Level Miami Center
04:02PM 26.7625 -80.7211 88° East 130 150 3,100  Level Miami Center
04:03PM 26.7694 -80.6864 77° East 130 150 3,200  Climbing Miami Center
04:04PM 26.7772 -80.6378 80° East 130 150 3,100 -120 Descending Miami Center
04:05PM 26.7864 -80.6008 74° East 136 157 3,000 -120 Descending Miami Center
04:07PM 26.7903 -80.5489 85° East  Level FlightAware Approximate
04:14PM 26.8204 -80.2878 78° East  Level FlightAware Approximate
04:15PM 26.8271 -80.2510 78° East  Level FlightAware Approximate
04:16PM 26.8333 -80.2167 78° East  Level FlightAware Approximate